createdAt,value
2022-10-11T00:01:00.644Z,19.30
2022-10-11T00:03:36.139Z,18.40
2022-10-11T00:06:06.276Z,18.70
2022-10-11T00:08:35.804Z,17.20
2022-10-11T00:11:07.078Z,16.60
2022-10-11T00:13:35.539Z,17.40
2022-10-11T00:16:08.974Z,14.40
2022-10-11T00:18:38.113Z,22.80
2022-10-11T00:21:09.710Z,17.90
2022-10-11T00:23:38.137Z,20.10
2022-10-11T00:26:09.302Z,19.10
2022-10-11T00:28:38.794Z,24.30
2022-10-11T00:31:09.823Z,20.30
2022-10-11T00:33:38.011Z,17.20
2022-10-11T00:36:07.596Z,17.60
2022-10-11T00:38:36.358Z,14.20
2022-10-11T00:41:04.410Z,19.90
2022-10-11T00:43:33.342Z,14.10
2022-10-11T00:46:13.706Z,14.10
2022-10-11T00:49:02.036Z,12.80
2022-10-11T00:51:39.427Z,15.80
2022-10-11T00:54:13.928Z,15.90
2022-10-11T00:56:46.010Z,14.30
2022-10-11T00:59:21.642Z,14.30
2022-10-11T01:01:50.153Z,17.50
2022-10-11T01:04:18.407Z,13.10
2022-10-11T01:06:47.829Z,12.70
2022-10-11T01:09:16.025Z,15.40
2022-10-11T01:11:45.149Z,15.00
2022-10-11T01:14:38.643Z,18.20
2022-10-11T01:17:39.798Z,16.50
2022-10-11T01:20:23.555Z,11.50
2022-10-11T01:23:22.671Z,11.60
2022-10-11T01:25:53.867Z,14.10
2022-10-11T01:28:28.127Z,11.30
2022-10-11T01:31:03.791Z,15.60
2022-10-11T01:33:56.413Z,12.60
2022-10-11T01:36:33.609Z,12.80
2022-10-11T01:39:14.804Z,16.30
2022-10-11T01:42:05.477Z,13.40
2022-10-11T01:44:35.838Z,14.30
2022-10-11T01:47:03.949Z,11.50
2022-10-11T01:49:31.994Z,15.70
2022-10-11T01:52:04.251Z,16.90
2022-10-11T01:54:56.572Z,19.20
2022-10-11T01:58:03.753Z,11.00
2022-10-11T02:00:45.377Z,15.30
2022-10-11T02:03:21.997Z,13.70
2022-10-11T02:05:54.941Z,17.70
2022-10-11T02:08:53.973Z,25.50
2022-10-11T02:11:31.657Z,17.40
2022-10-11T02:14:03.037Z,29.00
2022-10-11T02:17:08.732Z,24.90
2022-10-11T02:19:43.183Z,14.90
2022-10-11T02:22:22.649Z,17.50
2022-10-11T02:24:54.241Z,16.60
2022-10-11T02:27:26.842Z,35.10
2022-10-11T02:29:56.942Z,18.40
2022-10-11T02:32:26.734Z,13.20
2022-10-11T02:34:57.832Z,15.50
2022-10-11T02:37:50.658Z,12.00
2022-10-11T02:40:25.474Z,12.70
2022-10-11T02:43:18.470Z,15.10
2022-10-11T02:45:58.094Z,21.60
2022-10-11T02:48:29.499Z,17.60
2022-10-11T02:50:58.728Z,14.60
2022-10-11T02:53:27.391Z,19.00
2022-10-11T02:55:56.236Z,14.50
2022-10-11T02:58:25.732Z,14.70
2022-10-11T03:00:54.011Z,13.90
2022-10-11T03:03:22.135Z,15.40
2022-10-11T03:05:50.122Z,13.00
2022-10-11T03:08:18.426Z,12.60
2022-10-11T03:10:46.438Z,18.20
2022-10-11T03:13:18.095Z,22.90
2022-10-11T03:16:02.357Z,15.50
2022-10-11T03:18:35.642Z,16.00
2022-10-11T03:21:04.017Z,15.00
2022-10-11T03:23:32.409Z,14.00
2022-10-11T03:26:00.595Z,14.60
2022-10-11T03:28:28.929Z,16.10
2022-10-11T03:30:57.438Z,14.00
2022-10-11T03:33:25.791Z,12.50
2022-10-11T03:35:53.894Z,17.90
2022-10-11T03:38:22.912Z,15.20
2022-10-11T03:40:51.075Z,13.90
2022-10-11T03:43:19.256Z,14.50
2022-10-11T03:45:47.331Z,14.20
2022-10-11T03:48:15.490Z,14.10
2022-10-11T03:50:43.588Z,16.30
2022-10-11T03:53:11.791Z,18.60
2022-10-11T03:55:41.151Z,14.70
2022-10-11T03:58:09.702Z,18.40
2022-10-11T04:00:37.975Z,26.80
2022-10-11T04:03:06.064Z,22.90
2022-10-11T04:05:34.169Z,14.50
2022-10-11T04:08:02.345Z,15.40
2022-10-11T04:10:33.537Z,23.80
2022-10-11T04:13:01.756Z,20.60
2022-10-11T04:15:29.734Z,19.60
2022-10-11T04:17:57.876Z,14.70
2022-10-11T04:20:26.007Z,25.30
2022-10-11T04:22:56.298Z,13.30
2022-10-11T04:25:24.789Z,18.90
2022-10-11T04:27:52.843Z,14.40
2022-10-11T04:30:21.290Z,15.30
2022-10-11T04:32:49.796Z,16.20
2022-10-11T04:35:17.990Z,16.10
2022-10-11T04:37:47.281Z,13.70
2022-10-11T04:40:15.469Z,23.20
2022-10-11T04:42:44.023Z,15.40
2022-10-11T04:45:12.122Z,17.70
2022-10-11T04:47:41.277Z,16.60
2022-10-11T04:50:09.623Z,17.40
2022-10-11T04:52:44.965Z,21.70
2022-10-11T04:55:16.529Z,17.20
2022-10-11T04:57:50.189Z,20.70
2022-10-11T05:00:19.181Z,21.30
2022-10-11T05:02:48.212Z,16.60
2022-10-11T05:05:17.969Z,19.80
2022-10-11T05:07:47.955Z,16.00
2022-10-11T05:10:19.138Z,18.10
2022-10-11T05:12:47.731Z,12.70
2022-10-11T05:15:19.976Z,14.50
2022-10-11T05:17:49.075Z,17.40
2022-10-11T05:20:17.960Z,17.70
2022-10-11T05:22:46.417Z,19.00
2022-10-11T05:28:06.728Z,20.20
2022-10-11T05:30:39.866Z,21.40
2022-10-11T05:33:19.051Z,20.10
2022-10-11T05:36:04.583Z,21.60
2022-10-11T05:38:42.127Z,23.80
2022-10-11T05:41:17.110Z,17.00
2022-10-11T05:43:52.369Z,15.80
2022-10-11T05:46:24.288Z,14.80
2022-10-11T05:49:02.200Z,20.10
2022-10-11T05:51:44.456Z,19.80
2022-10-11T07:53:15.786Z,14.50
2022-10-11T08:20:51.979Z,18.00
2022-10-11T08:23:28.107Z,14.60
2022-10-11T08:26:01.692Z,12.70
2022-10-11T08:28:31.968Z,9.70
2022-10-11T08:31:08.017Z,13.10
2022-10-11T08:33:59.865Z,10.80
2022-10-11T08:36:45.052Z,12.30
2022-10-11T08:39:36.381Z,11.40
2022-10-11T08:42:54.890Z,13.00
2022-10-11T08:45:56.803Z,14.90
2022-10-11T08:49:15.675Z,11.90
2022-10-11T10:08:10.466Z,8.70
2022-10-11T10:13:38.241Z,12.50
2022-10-11T10:16:35.419Z,15.90
2022-10-11T10:19:33.535Z,9.50
2022-10-11T10:22:20.948Z,7.70
2022-10-11T10:24:53.623Z,7.20
2022-10-11T10:30:08.379Z,9.90
2022-10-11T10:32:57.371Z,12.90
2022-10-11T10:35:32.053Z,10.30
2022-10-11T10:40:57.175Z,9.20
2022-10-11T10:43:30.734Z,13.00
2022-10-11T10:46:51.736Z,14.20
2022-10-11T10:50:00.364Z,10.00
2022-10-11T10:53:02.207Z,19.30
2022-10-11T10:55:46.464Z,11.00
2022-10-11T10:58:52.889Z,10.20
2022-10-11T11:01:30.692Z,22.10
2022-10-11T11:04:25.445Z,13.20
2022-10-11T11:07:25.202Z,14.60
2022-10-11T11:10:23.467Z,15.40
2022-10-11T11:13:13.146Z,10.70
2022-10-11T11:15:45.310Z,57.10
2022-10-11T11:18:20.591Z,17.50
2022-10-11T11:23:42.552Z,15.50
2022-10-11T11:26:29.610Z,8.90
2022-10-11T11:29:20.216Z,13.70
2022-10-11T11:32:07.228Z,20.70
2022-10-11T11:34:43.171Z,11.70
2022-10-11T11:37:28.716Z,12.60
2022-10-11T11:40:22.818Z,11.90
2022-10-11T11:43:01.728Z,10.70
2022-10-11T11:45:49.369Z,12.40
2022-10-11T11:48:26.762Z,9.40
2022-10-11T11:51:05.331Z,9.60
2022-10-11T11:53:51.224Z,11.00
2022-10-11T11:56:27.249Z,12.00
2022-10-11T11:59:06.380Z,13.20
2022-10-11T12:01:49.343Z,14.50
2022-10-11T12:04:40.713Z,14.80
2022-10-11T12:07:21.061Z,15.60
2022-10-11T12:09:54.629Z,10.00
2022-10-11T12:12:34.056Z,12.70
2022-10-11T12:15:17.030Z,12.70
2022-10-11T12:17:58.646Z,15.30
2022-10-11T12:20:38.070Z,17.20
2022-10-11T12:23:30.462Z,13.20
2022-10-11T12:26:19.902Z,10.30
2022-10-11T12:29:02.208Z,12.00
2022-10-11T12:31:36.937Z,11.90
2022-10-11T12:34:07.953Z,9.00
2022-10-11T12:36:44.276Z,15.10
2022-10-11T12:39:18.639Z,13.30
2022-10-11T12:41:47.570Z,12.10
2022-10-11T12:44:18.407Z,11.70
2022-10-11T12:46:55.182Z,11.70
2022-10-11T12:49:38.572Z,14.70
2022-10-11T12:52:40.651Z,11.90
2022-10-11T12:55:35.621Z,14.40
2022-10-11T12:58:23.662Z,12.70
2022-10-11T13:00:58.151Z,9.30
2022-10-11T13:03:42.173Z,15.90
2022-10-11T13:06:28.557Z,13.30
2022-10-11T13:09:05.966Z,11.10
2022-10-11T13:11:40.647Z,11.40
2022-10-11T13:17:06.703Z,13.70
2022-10-11T13:19:38.151Z,16.30
2022-10-11T13:22:23.417Z,16.20
2022-10-11T13:24:58.191Z,18.80
2022-10-11T13:27:28.071Z,17.20
2022-10-11T13:30:01.211Z,17.90
2022-10-11T13:32:31.960Z,11.90
2022-10-11T13:35:07.108Z,14.00
2022-10-11T13:37:45.018Z,20.60
2022-10-11T13:40:16.609Z,18.40
2022-10-11T13:42:46.279Z,15.80
2022-10-11T13:45:19.476Z,15.40
2022-10-11T13:47:49.095Z,19.20
2022-10-11T13:50:23.653Z,24.60
2022-10-11T13:52:57.539Z,16.20
2022-10-11T13:55:29.106Z,16.30
2022-10-11T13:58:00.816Z,20.70
2022-10-11T14:03:15.911Z,13.70
2022-10-11T14:05:53.616Z,16.00
2022-10-11T14:08:44.183Z,14.30
2022-10-11T14:11:14.888Z,29.00
2022-10-11T14:13:44.958Z,18.20
2022-10-11T14:16:16.929Z,12.50
2022-10-11T14:18:49.109Z,16.80
2022-10-11T14:21:20.494Z,14.70
2022-10-11T14:23:53.086Z,12.90
2022-10-11T14:26:23.180Z,19.10
2022-10-11T14:28:58.987Z,17.80
2022-10-11T14:31:32.313Z,17.80
2022-10-11T14:34:00.711Z,16.20
2022-10-11T14:36:28.885Z,16.70
2022-10-11T14:38:57.085Z,13.50
2022-10-11T14:41:25.159Z,19.90
2022-10-11T14:43:56.478Z,18.30
2022-10-11T14:46:26.877Z,12.10
2022-10-11T14:48:56.520Z,12.60
2022-10-11T14:51:31.233Z,14.40
2022-10-11T14:53:59.425Z,13.70
2022-10-11T14:56:27.520Z,15.10
2022-10-11T14:58:55.730Z,16.90
2022-10-11T15:01:23.858Z,18.00
2022-10-11T15:03:51.977Z,13.20
2022-10-11T15:06:24.563Z,16.00
2022-10-11T15:08:52.699Z,17.10
2022-10-11T15:11:22.422Z,16.40
2022-10-11T15:13:50.713Z,30.50
2022-10-11T15:16:20.546Z,24.20
2022-10-11T15:18:51.986Z,26.10
2022-10-11T15:21:22.819Z,20.30
2022-10-11T15:23:54.578Z,24.70
2022-10-11T15:26:26.229Z,34.30
2022-10-11T15:28:56.533Z,29.70
2022-10-11T15:31:24.735Z,27.30
2022-10-11T15:33:53.047Z,26.80
2022-10-11T15:36:22.952Z,19.80
2022-10-11T15:38:51.564Z,26.70
2022-10-11T15:41:20.238Z,27.00
2022-10-11T15:43:49.915Z,26.90
2022-10-11T15:46:22.189Z,29.80
2022-10-11T15:48:51.932Z,57.10
2022-10-11T15:51:21.166Z,39.50
2022-10-11T15:53:49.326Z,38.40
2022-10-11T15:56:19.049Z,36.60
2022-10-11T15:58:47.299Z,34.30
2022-10-11T16:01:20.142Z,38.10
2022-10-11T16:03:49.850Z,89.00
2022-10-11T16:06:19.184Z,70.10
2022-10-11T16:08:48.074Z,49.20
2022-10-11T16:11:16.311Z,43.60
2022-10-11T16:13:45.340Z,46.70
2022-10-11T16:16:13.548Z,166.10
2022-10-11T16:18:41.846Z,85.40
2022-10-11T16:21:15.579Z,67.00
2022-10-11T16:23:43.637Z,49.10
2022-10-11T16:26:14.243Z,38.10
2022-10-11T16:28:42.817Z,51.80
2022-10-11T16:31:16.944Z,35.20
2022-10-11T16:33:48.138Z,19.50
2022-10-11T16:36:36.628Z,21.30
2022-10-11T16:39:09.432Z,24.50
2022-10-11T16:41:37.696Z,36.50
2022-10-11T16:44:07.040Z,43.60
2022-10-11T16:46:35.186Z,50.00
2022-10-11T16:49:03.651Z,44.70
2022-10-11T16:51:32.049Z,42.80
2022-10-11T16:54:01.211Z,27.60
2022-10-11T16:58:57.511Z,48.40
2022-10-11T17:01:26.198Z,40.10
2022-10-11T17:03:54.370Z,51.40
2022-10-11T17:06:22.985Z,40.70
2022-10-11T17:08:51.113Z,37.80
2022-10-11T17:11:19.310Z,40.40
2022-10-11T17:13:47.633Z,41.50
2022-10-11T17:16:17.605Z,42.80
2022-10-11T17:18:46.295Z,43.30
2022-10-11T17:21:16.721Z,48.40
2022-10-11T17:23:45.450Z,40.60
2022-10-11T17:26:24.988Z,41.10
2022-10-11T17:28:57.703Z,58.60
2022-10-11T17:31:27.063Z,51.30
2022-10-11T17:33:58.583Z,31.40
2022-10-11T17:36:34.856Z,33.20
2022-10-11T17:39:08.845Z,44.70
2022-10-11T17:41:37.178Z,37.20
2022-10-11T17:44:05.504Z,47.00
2022-10-11T17:46:34.029Z,37.00
2022-10-11T17:49:04.979Z,41.60
2022-10-11T17:51:35.469Z,34.50
2022-10-11T17:54:04.749Z,33.30
2022-10-11T17:56:37.649Z,39.30
2022-10-11T17:59:07.117Z,29.40
2022-10-11T18:01:35.917Z,32.00
2022-10-11T18:04:06.378Z,25.50
2022-10-11T18:06:39.977Z,26.00
2022-10-11T18:09:08.133Z,25.40
2022-10-11T18:11:36.259Z,40.20
2022-10-11T18:14:05.450Z,43.90
2022-10-11T18:16:34.489Z,49.60
2022-10-11T18:19:07.878Z,54.20
2022-10-11T18:21:37.900Z,49.70
2022-10-11T18:24:11.025Z,67.90
2022-10-11T18:26:39.460Z,34.30
2022-10-11T18:29:07.890Z,46.40
2022-10-11T18:31:36.077Z,51.00
2022-10-11T18:34:05.422Z,26.90
2022-10-11T18:36:33.419Z,23.10
2022-10-11T18:39:04.356Z,25.50
2022-10-11T18:41:34.138Z,24.20
2022-10-11T18:44:05.272Z,25.70
2022-10-11T18:46:34.390Z,21.20
2022-10-11T18:49:03.155Z,23.20
2022-10-11T18:51:34.324Z,22.90
2022-10-11T18:54:02.887Z,28.90
2022-10-11T18:56:32.799Z,29.30
2022-10-11T18:59:01.557Z,24.90
2022-10-11T19:01:34.578Z,28.60
2022-10-11T19:04:04.668Z,25.50
2022-10-11T19:06:38.839Z,25.70
2022-10-11T19:09:13.317Z,53.10
2022-10-11T19:11:41.883Z,42.60
2022-10-11T19:14:14.613Z,37.00
2022-10-11T19:16:46.475Z,31.60
2022-10-11T19:19:14.581Z,29.00
2022-10-11T19:21:43.154Z,30.00
2022-10-11T19:24:11.334Z,36.10
2022-10-11T19:26:41.045Z,35.40
2022-10-11T19:29:15.063Z,34.30
2022-10-11T19:31:45.723Z,26.00
2022-10-11T19:34:14.019Z,26.70
2022-10-11T19:36:43.012Z,26.50
2022-10-11T19:39:16.494Z,193.30
2022-10-11T19:41:45.190Z,83.20
2022-10-11T19:44:14.733Z,44.40
2022-10-11T19:46:52.033Z,37.80
2022-10-11T19:49:25.157Z,30.20
2022-10-11T19:51:55.560Z,27.30
2022-10-11T19:54:24.171Z,26.20
2022-10-11T19:56:52.819Z,24.20
2022-10-11T19:59:21.000Z,39.40
2022-10-11T20:01:52.720Z,43.40
2022-10-11T20:04:50.656Z,33.80
2022-10-11T20:07:10.735Z,29.80
2022-10-11T20:09:39.089Z,26.40
2022-10-11T20:12:07.607Z,31.00
2022-10-11T20:14:35.718Z,29.60
2022-10-11T20:17:04.028Z,29.80
2022-10-11T20:19:32.118Z,28.70
2022-10-11T20:22:01.083Z,32.40
2022-10-11T20:24:33.350Z,37.10
2022-10-11T20:27:05.639Z,29.90
2022-10-11T20:29:34.110Z,32.60
2022-10-11T20:32:02.292Z,35.60
2022-10-11T20:34:31.104Z,38.00
2022-10-11T20:36:59.695Z,39.00
2022-10-11T20:39:27.755Z,35.40
2022-10-11T20:41:55.780Z,36.10
2022-10-11T20:44:24.028Z,37.70
2022-10-11T20:46:52.093Z,38.80
2022-10-11T20:49:20.746Z,37.60
2022-10-11T20:51:49.499Z,35.00
2022-10-11T20:54:17.522Z,39.70
2022-10-11T20:56:46.078Z,35.80
2022-10-11T20:59:14.171Z,37.70
2022-10-11T21:01:43.225Z,36.20
2022-10-11T21:04:18.505Z,32.50
2022-10-11T21:06:48.442Z,34.50
2022-10-11T21:09:17.587Z,34.30
2022-10-11T21:11:46.489Z,31.80
2022-10-11T21:14:15.087Z,34.00
2022-10-11T21:16:43.268Z,32.60
2022-10-11T21:19:15.289Z,35.10
2022-10-11T21:21:46.507Z,32.90
2022-10-11T21:26:45.855Z,35.90
2022-10-11T21:29:14.228Z,36.30
2022-10-11T21:31:42.209Z,36.00
2022-10-11T21:34:10.226Z,38.20
2022-10-11T21:36:38.470Z,39.80
2022-10-11T21:39:06.497Z,38.40
2022-10-11T21:41:35.386Z,36.50
2022-10-11T21:44:03.585Z,34.60
2022-10-11T21:46:54.463Z,35.10
2022-10-11T21:49:20.703Z,33.00
2022-10-11T21:51:48.833Z,34.00
2022-10-11T21:54:17.303Z,31.60
2022-10-11T21:56:45.451Z,35.90
2022-10-11T21:59:14.146Z,37.90
2022-10-11T22:01:43.429Z,35.10
2022-10-11T22:04:12.192Z,33.10
2022-10-11T22:06:40.705Z,31.40
2022-10-11T22:09:08.940Z,30.90
2022-10-11T22:11:37.553Z,31.20
2022-10-11T22:14:05.948Z,43.40
2022-10-11T22:16:35.285Z,70.30
2022-10-11T22:19:03.757Z,45.60
2022-10-11T22:21:32.156Z,81.60
2022-10-11T22:24:00.364Z,44.20
2022-10-11T22:26:30.979Z,47.80
2022-10-11T22:29:00.618Z,39.70
2022-10-11T22:31:29.674Z,38.40
2022-10-11T22:33:59.406Z,68.50
2022-10-11T22:36:30.622Z,66.90
2022-10-11T22:38:59.294Z,48.60
2022-10-11T22:41:27.329Z,40.50
2022-10-11T22:43:55.368Z,36.40
2022-10-11T22:46:23.602Z,27.50
2022-10-11T22:48:51.782Z,22.60
2022-10-11T22:51:20.005Z,30.40
2022-10-11T22:53:48.642Z,25.30
2022-10-11T22:56:16.765Z,25.20
2022-10-11T22:58:44.868Z,24.00
2022-10-11T23:01:15.987Z,22.70
2022-10-11T23:03:48.518Z,20.70
2022-10-11T23:06:17.333Z,17.50
2022-10-11T23:08:45.393Z,30.10
2022-10-11T23:11:13.694Z,21.60
2022-10-11T23:13:41.791Z,18.50
2022-10-11T23:16:12.201Z,19.70
2022-10-11T23:18:40.489Z,17.50
2022-10-11T23:21:08.977Z,16.90
2022-10-11T23:23:39.902Z,21.50
2022-10-11T23:26:13.871Z,17.90
2022-10-11T23:28:43.322Z,15.70
2022-10-11T23:31:18.853Z,20.60
2022-10-11T23:33:48.090Z,26.00
2022-10-11T23:36:21.811Z,26.30
2022-10-11T23:38:53.980Z,20.00
2022-10-11T23:41:23.641Z,19.00
2022-10-11T23:43:52.661Z,19.50
2022-10-11T23:46:21.028Z,23.90
2022-10-11T23:48:49.163Z,20.20
2022-10-11T23:51:17.350Z,18.00
2022-10-11T23:53:45.544Z,20.70
2022-10-11T23:56:13.861Z,19.10
2022-10-11T23:58:42.027Z,21.40
